ACA61G CYUL-EGKK
Flight info
| Callsign | ACA61G |
|---|---|
| Flight time | N/A |
| Altitude | 39000 |
| Route | ANTEG DCT OBRON DCT MOBUB DCT EBMOS DCT IMORI DCT KITOP DCT CEFOU N645B RIKAL/M084F400 DCT 53N050W 54N040W 55N030W 55N020W DCT DOGAL DCT BEXET/N0491F410 DCT NORLA DCT FONZU DCT ELRIP DCT OTMET |
| Aircraft | A359/H-SDE2E3GHIJ3J4J5LM1ORWXY/LB1D1 |
Departure
| Time | N/A |
|---|---|
| Airport | Montreal / Pierre Elliott Trudeau International Airport (CYUL) |
Arrival
| Time | 2026-05-07 17:23 |
|---|---|
| Airport | London Gatwick Airport (EGKK) |
| Time | Latitude | Longitude | Altitude | Speed | Heading |
|---|---|---|---|---|---|
| 2026-05-07 16:26 | 51.46302 | -6.25637 | 39001 ft | 463 kts | 114° |
| 2026-05-07 16:27 | 51.45067 | -6.20859 | 39002 ft | 463 kts | 115° |
| 2026-05-07 16:27 | 51.42592 | -6.11307 | 39004 ft | 464 kts | 115° |
| 2026-05-07 16:28 | 51.40107 | -6.01758 | 39003 ft | 464 kts | 115° |
| 2026-05-07 16:28 | 51.37617 | -5.92227 | 39004 ft | 464 kts | 115° |
| 2026-05-07 16:29 | 51.35116 | -5.82695 | 39004 ft | 464 kts | 115° |
| 2026-05-07 16:29 | 51.32610 | -5.73183 | 38999 ft | 464 kts | 115° |
| 2026-05-07 16:30 | 51.30109 | -5.63730 | 39007 ft | 464 kts | 115° |
| 2026-05-07 16:30 | 51.27588 | -5.54242 | 39010 ft | 463 kts | 115° |
| 2026-05-07 16:31 | 51.25060 | -5.44767 | 39009 ft | 463 kts | 115° |
| 2026-05-07 16:31 | 51.22526 | -5.35307 | 39007 ft | 463 kts | 115° |
| 2026-05-07 16:32 | 51.19986 | -5.25862 | 39008 ft | 463 kts | 115° |
| 2026-05-07 16:32 | 51.17438 | -5.16430 | 39009 ft | 463 kts | 115° |
| 2026-05-07 16:33 | 51.14883 | -5.07009 | 39007 ft | 463 kts | 115° |
| 2026-05-07 16:33 | 51.12322 | -4.97604 | 39007 ft | 463 kts | 115° |
| 2026-05-07 16:34 | 51.09751 | -4.88201 | 39006 ft | 463 kts | 116° |
| 2026-05-07 16:34 | 51.07174 | -4.78812 | 39007 ft | 463 kts | 116° |
| 2026-05-07 16:35 | 51.04600 | -4.69472 | 39013 ft | 463 kts | 116° |
| 2026-05-07 16:35 | 51.02003 | -4.60087 | 39005 ft | 464 kts | 116° |
| 2026-05-07 16:36 | 50.99393 | -4.50691 | 39008 ft | 464 kts | 116° |
| 2026-05-07 16:36 | 50.96776 | -4.41312 | 39007 ft | 464 kts | 116° |
| 2026-05-07 16:37 | 50.94172 | -4.32012 | 39004 ft | 464 kts | 116° |
| 2026-05-07 16:37 | 50.91545 | -4.22667 | 39002 ft | 464 kts | 116° |
| 2026-05-07 16:38 | 50.88907 | -4.13323 | 39001 ft | 464 kts | 116° |
| 2026-05-07 16:38 | 50.86261 | -4.03987 | 38769 ft | 470 kts | 116° |
| 2026-05-07 16:38 | 50.84895 | -3.99191 | 38498 ft | 483 kts | 116° |
| 2026-05-07 16:39 | 50.83493 | -3.94278 | 38227 ft | 494 kts | 116° |
| 2026-05-07 16:39 | 50.82178 | -3.89217 | 37952 ft | 499 kts | 111° |
| 2026-05-07 16:39 | 50.81027 | -3.84041 | 37655 ft | 499 kts | 111° |
| 2026-05-07 16:39 | 50.79916 | -3.78846 | 37406 ft | 498 kts | 110° |
| 2026-05-07 16:40 | 50.78826 | -3.73646 | 37128 ft | 497 kts | 110° |
| 2026-05-07 16:40 | 50.77744 | -3.68451 | 36861 ft | 497 kts | 110° |
| 2026-05-07 16:40 | 50.76662 | -3.63259 | 36602 ft | 497 kts | 110° |
| 2026-05-07 16:40 | 50.75577 | -3.58081 | 36348 ft | 496 kts | 110° |
| 2026-05-07 16:41 | 50.74488 | -3.52914 | 36089 ft | 496 kts | 110° |
| 2026-05-07 16:41 | 50.73398 | -3.47761 | 35824 ft | 495 kts | 111° |
| 2026-05-07 16:41 | 50.72316 | -3.42672 | 35588 ft | 494 kts | 111° |
| 2026-05-07 16:41 | 50.71219 | -3.37529 | 35347 ft | 494 kts | 111° |
| 2026-05-07 16:42 | 50.70120 | -3.32388 | 35096 ft | 493 kts | 111° |
| 2026-05-07 16:42 | 50.69020 | -3.27259 | 34851 ft | 493 kts | 111° |
| 2026-05-07 16:42 | 50.67918 | -3.22132 | 34605 ft | 493 kts | 111° |
| 2026-05-07 16:42 | 50.66814 | -3.17010 | 34360 ft | 493 kts | 111° |
| 2026-05-07 16:43 | 50.65708 | -3.11890 | 34123 ft | 493 kts | 111° |
| 2026-05-07 16:43 | 50.64605 | -3.06774 | 33859 ft | 493 kts | 111° |
| 2026-05-07 16:43 | 50.63772 | -3.01537 | 33464 ft | 493 kts | 102° |
| 2026-05-07 16:43 | 50.63493 | -2.96140 | 32644 ft | 495 kts | 90° |
| 2026-05-07 16:44 | 50.63803 | -2.90736 | 31770 ft | 497 kts | 84° |
| 2026-05-07 16:44 | 50.64321 | -2.85346 | 30907 ft | 498 kts | 82° |
| 2026-05-07 16:44 | 50.64918 | -2.80031 | 29971 ft | 500 kts | 81° |
| 2026-05-07 16:44 | 50.65555 | -2.74647 | 29086 ft | 498 kts | 81° |
| 2026-05-07 16:45 | 50.66188 | -2.69316 | 28395 ft | 492 kts | 81° |
| 2026-05-07 16:45 | 50.66803 | -2.64044 | 27712 ft | 487 kts | 81° |
| 2026-05-07 16:45 | 50.67399 | -2.58805 | 27168 ft | 483 kts | 81° |
| 2026-05-07 16:45 | 50.67954 | -2.53552 | 27014 ft | 487 kts | 84° |
| 2026-05-07 16:46 | 50.68071 | -2.48224 | 27015 ft | 486 kts | 94° |
| 2026-05-07 16:46 | 50.67883 | -2.42910 | 27016 ft | 485 kts | 95° |
| 2026-05-07 16:46 | 50.67649 | -2.37605 | 27020 ft | 485 kts | 96° |
| 2026-05-07 16:46 | 50.67412 | -2.32292 | 27014 ft | 485 kts | 95° |
| 2026-05-07 16:47 | 50.67178 | -2.27000 | 27021 ft | 485 kts | 95° |
| 2026-05-07 16:47 | 50.66944 | -2.21682 | 27026 ft | 486 kts | 95° |
| 2026-05-07 16:47 | 50.66710 | -2.16371 | 27025 ft | 486 kts | 95° |
| 2026-05-07 16:47 | 50.66474 | -2.11064 | 27026 ft | 486 kts | 95° |
| 2026-05-07 16:48 | 50.66236 | -2.05750 | 27014 ft | 485 kts | 96° |
| 2026-05-07 16:48 | 50.66116 | -2.00466 | 26522 ft | 478 kts | 91° |
| 2026-05-07 16:48 | 50.66158 | -1.95227 | 25668 ft | 478 kts | 90° |
| 2026-05-07 16:48 | 50.66231 | -1.89995 | 25126 ft | 476 kts | 90° |
| 2026-05-07 16:49 | 50.66300 | -1.84786 | 24559 ft | 474 kts | 90° |
| 2026-05-07 16:49 | 50.66363 | -1.79608 | 23987 ft | 470 kts | 90° |
| 2026-05-07 16:49 | 50.66421 | -1.74455 | 23387 ft | 467 kts | 90° |
| 2026-05-07 16:49 | 50.66475 | -1.69408 | 22723 ft | 463 kts | 90° |
| 2026-05-07 16:50 | 50.66526 | -1.64340 | 22076 ft | 459 kts | 90° |
| 2026-05-07 16:50 | 50.66575 | -1.59291 | 21438 ft | 455 kts | 90° |
| 2026-05-07 16:50 | 50.66620 | -1.54357 | 20813 ft | 451 kts | 90° |
| 2026-05-07 16:50 | 50.66611 | -1.49441 | 20288 ft | 446 kts | 92° |
| 2026-05-07 16:51 | 50.66531 | -1.44574 | 20073 ft | 444 kts | 93° |
| 2026-05-07 16:51 | 50.66447 | -1.39714 | 20040 ft | 443 kts | 93° |
| 2026-05-07 16:51 | 50.66510 | -1.34844 | 20042 ft | 444 kts | 84° |
| 2026-05-07 16:51 | 50.67255 | -1.30120 | 20046 ft | 445 kts | 71° |
| 2026-05-07 16:52 | 50.68364 | -1.25628 | 20041 ft | 445 kts | 68° |
| 2026-05-07 16:52 | 50.69538 | -1.21108 | 20045 ft | 445 kts | 68° |
| 2026-05-07 16:52 | 50.70698 | -1.16629 | 19953 ft | 433 kts | 68° |
| 2026-05-07 16:52 | 50.71794 | -1.12372 | 19581 ft | 405 kts | 68° |
| 2026-05-07 16:53 | 50.72818 | -1.08367 | 19215 ft | 382 kts | 69° |
| 2026-05-07 16:53 | 50.73779 | -1.04594 | 18859 ft | 361 kts | 69° |
| 2026-05-07 16:53 | 50.74392 | -1.02182 | 18507 ft | 352 kts | 69° |
| 2026-05-07 16:53 | 50.75292 | -0.98629 | 17747 ft | 346 kts | 69° |
| 2026-05-07 16:54 | 50.76176 | -0.95133 | 16945 ft | 340 kts | 69° |
| 2026-05-07 16:54 | 50.77047 | -0.91684 | 16165 ft | 335 kts | 69° |
| 2026-05-07 16:54 | 50.77903 | -0.88290 | 15434 ft | 330 kts | 69° |
| 2026-05-07 16:54 | 50.78745 | -0.84947 | 14683 ft | 325 kts | 69° |
| 2026-05-07 16:55 | 50.79574 | -0.81646 | 13973 ft | 321 kts | 69° |
| 2026-05-07 16:55 | 50.80385 | -0.78415 | 13444 ft | 310 kts | 70° |
| 2026-05-07 16:55 | 50.81105 | -0.75187 | 13181 ft | 311 kts | 77° |
| 2026-05-07 16:55 | 50.81568 | -0.71849 | 12803 ft | 309 kts | 81° |
| 2026-05-07 16:56 | 50.81954 | -0.68513 | 12492 ft | 308 kts | 81° |
| 2026-05-07 16:56 | 50.82333 | -0.65186 | 12232 ft | 307 kts | 81° |
| 2026-05-07 16:56 | 50.83095 | -0.58547 | 11739 ft | 307 kts | 81° |
| 2026-05-07 16:57 | 50.83473 | -0.55269 | 11473 ft | 305 kts | 81° |
| 2026-05-07 16:57 | 50.83852 | -0.51976 | 11203 ft | 303 kts | 81° |
| 2026-05-07 16:57 | 50.84229 | -0.48700 | 10939 ft | 302 kts | 81° |
| 2026-05-07 16:57 | 50.84604 | -0.45440 | 10708 ft | 301 kts | 81° |
| 2026-05-07 16:58 | 50.84976 | -0.42188 | 10450 ft | 300 kts | 81° |
| 2026-05-07 16:58 | 50.85347 | -0.38948 | 10200 ft | 299 kts | 81° |
| 2026-05-07 16:58 | 50.85715 | -0.35717 | 9945 ft | 298 kts | 81° |
| 2026-05-07 16:58 | 50.86082 | -0.32493 | 9684 ft | 297 kts | 81° |
| 2026-05-07 16:59 | 50.86446 | -0.29285 | 9432 ft | 295 kts | 81° |
| 2026-05-07 16:59 | 50.86803 | -0.26135 | 9271 ft | 284 kts | 81° |
| 2026-05-07 16:59 | 50.87145 | -0.23113 | 9128 ft | 273 kts | 81° |
| 2026-05-07 16:59 | 50.87477 | -0.20201 | 8929 ft | 265 kts | 80° |
| 2026-05-07 17:00 | 50.88044 | -0.17472 | 8658 ft | 259 kts | 63° |
| 2026-05-07 17:00 | 50.89155 | -0.15312 | 8401 ft | 256 kts | 38° |
| 2026-05-07 17:00 | 50.90740 | -0.14040 | 8171 ft | 252 kts | 13° |
| 2026-05-07 17:00 | 50.92440 | -0.14050 | 7958 ft | 249 kts | 343° |
| 2026-05-07 17:01 | 50.93916 | -0.15379 | 7764 ft | 244 kts | 313° |
| 2026-05-07 17:01 | 50.94843 | -0.17605 | 7567 ft | 242 kts | 294° |
| 2026-05-07 17:01 | 50.95511 | -0.20053 | 7362 ft | 242 kts | 291° |
| 2026-05-07 17:01 | 50.96135 | -0.22535 | 7160 ft | 242 kts | 291° |
| 2026-05-07 17:02 | 50.96747 | -0.25030 | 6949 ft | 242 kts | 291° |
| 2026-05-07 17:02 | 50.97348 | -0.27530 | 6598 ft | 243 kts | 291° |
| 2026-05-07 17:02 | 50.97937 | -0.30047 | 6208 ft | 243 kts | 291° |
| 2026-05-07 17:02 | 50.98522 | -0.32579 | 5791 ft | 245 kts | 291° |
| 2026-05-07 17:03 | 50.99113 | -0.35125 | 5372 ft | 247 kts | 291° |
| 2026-05-07 17:03 | 50.99713 | -0.37691 | 4974 ft | 248 kts | 291° |
| 2026-05-07 17:03 | 51.00314 | -0.40265 | 4545 ft | 249 kts | 291° |
| 2026-05-07 17:03 | 51.00915 | -0.42839 | 4105 ft | 246 kts | 291° |
| 2026-05-07 17:04 | 51.01502 | -0.45335 | 3717 ft | 236 kts | 291° |
| 2026-05-07 17:04 | 51.02070 | -0.47719 | 3329 ft | 232 kts | 291° |
| 2026-05-07 17:04 | 51.02796 | -0.49980 | 3000 ft | 232 kts | 311° |
| 2026-05-07 17:04 | 51.04101 | -0.51452 | 2989 ft | 231 kts | 336° |
| 2026-05-07 17:05 | 51.05600 | -0.52404 | 2989 ft | 232 kts | 340° |
| 2026-05-07 17:05 | 51.07121 | -0.53268 | 2990 ft | 232 kts | 341° |
| 2026-05-07 17:05 | 51.08688 | -0.53843 | 2992 ft | 233 kts | 0° |
| 2026-05-07 17:05 | 51.10218 | -0.53178 | 2986 ft | 229 kts | 33° |
| 2026-05-07 17:06 | 51.11275 | -0.51353 | 2990 ft | 226 kts | 65° |
| 2026-05-07 17:06 | 51.11687 | -0.48953 | 2989 ft | 227 kts | 88° |
| 2026-05-07 17:06 | 51.11555 | -0.46318 | 2984 ft | 250 kts | 99° |
| 2026-05-07 17:06 | 51.11264 | -0.43603 | 2986 ft | 242 kts | 101° |
| 2026-05-07 17:07 | 51.11000 | -0.41061 | 2995 ft | 224 kts | 96° |
| 2026-05-07 17:07 | 51.11172 | -0.38699 | 2997 ft | 208 kts | 77° |
| 2026-05-07 17:07 | 51.11539 | -0.36380 | 2992 ft | 223 kts | 78° |
| 2026-05-07 17:07 | 51.11576 | -0.33894 | 2989 ft | 226 kts | 97° |
| 2026-05-07 17:08 | 51.11339 | -0.31427 | 3012 ft | 225 kts | 100° |
| 2026-05-07 17:08 | 51.11063 | -0.28970 | 3422 ft | 227 kts | 101° |
| 2026-05-07 17:08 | 51.10767 | -0.26492 | 3874 ft | 227 kts | 101° |
| 2026-05-07 17:08 | 51.10466 | -0.24030 | 3986 ft | 227 kts | 101° |
| 2026-05-07 17:09 | 51.10162 | -0.21572 | 3993 ft | 227 kts | 101° |
| 2026-05-07 17:09 | 51.09790 | -0.19141 | 3991 ft | 227 kts | 102° |
| 2026-05-07 17:09 | 51.09262 | -0.16786 | 3986 ft | 229 kts | 123° |
| 2026-05-07 17:09 | 51.08083 | -0.15137 | 3991 ft | 228 kts | 155° |
| 2026-05-07 17:10 | 51.06533 | -0.14624 | 3993 ft | 230 kts | 177° |
| 2026-05-07 17:10 | 51.04919 | -0.14630 | 3992 ft | 231 kts | 181° |
| 2026-05-07 17:10 | 51.03329 | -0.14701 | 3991 ft | 232 kts | 181° |
| 2026-05-07 17:10 | 51.01718 | -0.14869 | 3983 ft | 233 kts | 189° |
| 2026-05-07 17:11 | 51.00320 | -0.15979 | 3984 ft | 216 kts | 224° |
| 2026-05-07 17:11 | 50.99555 | -0.17874 | 4027 ft | 196 kts | 247° |
| 2026-05-07 17:11 | 50.99085 | -0.19853 | 4011 ft | 191 kts | 250° |
| 2026-05-07 17:11 | 50.98650 | -0.21858 | 3995 ft | 192 kts | 251° |
| 2026-05-07 17:12 | 50.98217 | -0.23870 | 3992 ft | 193 kts | 251° |
| 2026-05-07 17:12 | 50.97786 | -0.25883 | 3993 ft | 192 kts | 251° |
| 2026-05-07 17:12 | 50.97355 | -0.27889 | 3992 ft | 192 kts | 251° |
| 2026-05-07 17:12 | 50.96925 | -0.29905 | 3993 ft | 193 kts | 251° |
| 2026-05-07 17:13 | 50.96493 | -0.31919 | 3992 ft | 193 kts | 251° |
| 2026-05-07 17:13 | 50.96061 | -0.33933 | 3993 ft | 193 kts | 251° |
| 2026-05-07 17:13 | 50.95761 | -0.36010 | 3983 ft | 196 kts | 270° |
| 2026-05-07 17:13 | 50.96082 | -0.38090 | 3996 ft | 194 kts | 292° |
| 2026-05-07 17:14 | 50.96627 | -0.40047 | 3990 ft | 194 kts | 295° |
| 2026-05-07 17:14 | 50.97198 | -0.41983 | 3989 ft | 194 kts | 296° |
| 2026-05-07 17:14 | 50.97772 | -0.43917 | 3992 ft | 194 kts | 296° |
| 2026-05-07 17:14 | 50.98346 | -0.45853 | 3990 ft | 194 kts | 296° |
| 2026-05-07 17:15 | 50.98921 | -0.47790 | 3994 ft | 194 kts | 296° |
| 2026-05-07 17:15 | 50.99496 | -0.49731 | 3991 ft | 194 kts | 296° |
| 2026-05-07 17:15 | 51.00070 | -0.51669 | 3992 ft | 193 kts | 296° |
| 2026-05-07 17:15 | 51.00644 | -0.53599 | 3991 ft | 193 kts | 296° |
| 2026-05-07 17:16 | 51.01217 | -0.55520 | 3993 ft | 193 kts | 296° |
| 2026-05-07 17:16 | 51.01866 | -0.57378 | 3984 ft | 194 kts | 310° |
| 2026-05-07 17:16 | 51.02986 | -0.58492 | 3998 ft | 190 kts | 344° |
| 2026-05-07 17:16 | 51.04267 | -0.58972 | 3992 ft | 189 kts | 351° |
| 2026-05-07 17:17 | 51.05549 | -0.58634 | 3944 ft | 190 kts | 27° |
| 2026-05-07 17:17 | 51.06643 | -0.57472 | 3603 ft | 192 kts | 39° |
| 2026-05-07 17:17 | 51.07679 | -0.56133 | 3343 ft | 187 kts | 40° |
| 2026-05-07 17:17 | 51.08674 | -0.54816 | 3070 ft | 185 kts | 40° |
| 2026-05-07 17:18 | 51.09637 | -0.53467 | 2994 ft | 185 kts | 48° |
| 2026-05-07 17:18 | 51.10277 | -0.51701 | 2990 ft | 185 kts | 71° |
| 2026-05-07 17:18 | 51.10572 | -0.49707 | 2990 ft | 185 kts | 80° |
| 2026-05-07 17:18 | 51.10837 | -0.47708 | 2989 ft | 185 kts | 78° |
| 2026-05-07 17:19 | 51.11109 | -0.45738 | 2985 ft | 185 kts | 78° |
| 2026-05-07 17:19 | 51.11391 | -0.43748 | 2991 ft | 185 kts | 78° |
| 2026-05-07 17:19 | 51.11675 | -0.41753 | 2921 ft | 185 kts | 78° |
| 2026-05-07 17:19 | 51.11956 | -0.39754 | 2687 ft | 184 kts | 78° |
| 2026-05-07 17:20 | 51.12228 | -0.37777 | 2424 ft | 182 kts | 80° |
| 2026-05-07 17:20 | 51.12496 | -0.35822 | 2179 ft | 180 kts | 79° |
| 2026-05-07 17:20 | 51.12759 | -0.33919 | 1931 ft | 172 kts | 79° |
| 2026-05-07 17:20 | 51.13011 | -0.32099 | 1702 ft | 165 kts | 80° |
| 2026-05-07 17:21 | 51.13255 | -0.30325 | 1474 ft | 164 kts | 79° |
| 2026-05-07 17:21 | 51.13500 | -0.28545 | 1243 ft | 163 kts | 79° |
| 2026-05-07 17:21 | 51.13740 | -0.26807 | 1012 ft | 156 kts | 79° |
| 2026-05-07 17:21 | 51.13965 | -0.25182 | 806 ft | 144 kts | 80° |
| 2026-05-07 17:22 | 51.14174 | -0.23662 | 626 ft | 136 kts | 80° |
| 2026-05-07 17:22 | 51.14372 | -0.22234 | 467 ft | 130 kts | 80° |
| 2026-05-07 17:22 | 51.14564 | -0.20844 | 292 ft | 128 kts | 81° |
| 2026-05-07 17:22 | 51.14752 | -0.19481 | 221 ft | 118 kts | 78° |
| 2026-05-07 17:23 | 51.14874 | -0.18582 | 216 ft | 41 kts | 78° |
| 2026-05-07 17:23 | 51.14900 | -0.18398 | 217 ft | 19 kts | 77° |
| 2026-05-07 17:23 | 51.14950 | -0.18084 | 222 ft | 32 kts | 70° |
| 2026-05-07 17:23 | 51.15036 | -0.17836 | 221 ft | 17 kts | 53° |
| 2026-05-07 17:24 | 51.15103 | -0.17758 | 217 ft | 6 kts | 353° |
| 2026-05-07 17:24 | 51.15153 | -0.17763 | 211 ft | 7 kts | 355° |
| 2026-05-07 17:24 | 51.15170 | -0.17766 | 216 ft | 1 kts | 354° |
| 2026-05-07 17:24 | 51.15179 | -0.17768 | 211 ft | 0 kts | 354° |
| 2026-05-07 17:25 | 51.15180 | -0.17768 | 211 ft | 2 kts | 354° |
| 2026-05-07 17:26 | 51.15236 | -0.17758 | 222 ft | 13 kts | 30° |
| 2026-05-07 17:26 | 51.15277 | -0.17610 | 217 ft | 13 kts | 76° |
| 2026-05-07 17:26 | 51.15295 | -0.17473 | 211 ft | 13 kts | 80° |
| 2026-05-07 17:26 | 51.15301 | -0.17427 | 216 ft | 0 kts | 79° |
| 2026-05-07 17:27 | 51.15304 | -0.17412 | 219 ft | 7 kts | 71° |
| 2026-05-07 17:27 | 51.15352 | -0.17375 | 219 ft | 13 kts | 359° |
| 2026-05-07 17:27 | 51.15466 | -0.17409 | 214 ft | 18 kts | 348° |
| 2026-05-07 17:27 | 51.15600 | -0.17456 | 219 ft | 22 kts | 347° |
| 2026-05-07 17:28 | 51.15698 | -0.17490 | 217 ft | 10 kts | 347° |
| 2026-05-07 17:28 | 51.15761 | -0.17464 | 221 ft | 11 kts | 46° |
| 2026-05-07 17:28 | 51.15785 | -0.17336 | 210 ft | 14 kts | 78° |
| 2026-05-07 17:28 | 51.15807 | -0.17167 | 220 ft | 17 kts | 77° |
| 2026-05-07 17:29 | 51.15892 | -0.17055 | 221 ft | 17 kts | 27° |
| 2026-05-07 17:29 | 51.15957 | -0.16956 | 215 ft | 0 kts | 59° |
| 2026-05-07 17:29 | 51.15959 | -0.16950 | 216 ft | 2 kts | 62° |
| 2026-05-07 17:29 | 51.15961 | -0.16898 | 221 ft | 10 kts | 96° |
| 2026-05-07 17:30 | 51.15941 | -0.16856 | 220 ft | 1 kts | 156° |
| 2026-05-07 17:30 | 51.15934 | -0.16855 | 218 ft | 3 kts | 171° |
| 2026-05-07 17:30 | 51.15913 | -0.16850 | 215 ft | 0 kts | 171° |
| 2026-05-07 17:31 | 51.15912 | -0.16849 | 214 ft | 0 kts | 171° |